Malaviya Twenty — AUEV — position and weather

sailwx.info

Track history (hours):
 
Tides and Currents Weather Stations Pressure Air Temp Water Temp Dewpoint Dewpoint Depression Visibility Wind Speed Wind Dir Waves Ship Positions

Malaviya Twenty

Last reported at 2015-Feb-28 16:33 UTC. Time now 2015-Feb-28 17:27 UTC.
Position N 52°36' E 001°44'.

Length 72 m; draft 4.3 m.

Type: Ship. MMSI: 419504000.

Date/timePositionNaut miles runAvg speedWind from/ knotsBaromVisibWave heightAir tempDewpointWater temp
2015-Feb-28 16:33N 52°36' E 001°44'0 0.0
2015-Feb-28 15:33N 52°36' E 001°44'0 0.0
2015-Feb-28 14:33N 52°36' E 001°44'0 0.0
2015-Feb-28 13:33N 52°36' E 001°44'0 0.0
2015-Feb-28 12:33N 52°36' E 001°44'0 0.0
2015-Feb-28 11:33N 52°36' E 001°44'0 0.0
2015-Feb-28 10:33N 52°36' E 001°44'0 0.0
2015-Feb-28 09:32N 52°36' E 001°44'0 0.0
2015-Feb-28 08:32N 52°36' E 001°44'0 0.0
2015-Feb-28 07:32N 52°36' E 001°44'0 0.0
2015-Feb-28 06:32N 52°36' E 001°44'0 0.0
2015-Feb-28 05:32N 52°36' E 001°44'0 0.0
2015-Feb-28 04:32N 52°36' E 001°44'0 0.0
2015-Feb-28 03:32N 52°36' E 001°44'0 0.0
2015-Feb-28 02:32N 52°36' E 001°44'0 0.0
2015-Feb-28 01:32N 52°36' E 001°44'0 0.0
2015-Feb-28 00:32N 52°36' E 001°44'0 0.0
2015-Feb-27 23:32N 52°36' E 001°44'0 0.0
2015-Feb-27 22:32N 52°36' E 001°44'0 0.0
2015-Feb-27 21:32N 52°36' E 001°44'0 0.0
2015-Feb-27 20:32N 52°36' E 001°44'0 0.0
2015-Feb-27 19:32N 52°36' E 001°44'0 0.0
2015-Feb-27 18:32N 52°36' E 001°44'0 0.0
2015-Feb-27 17:32N 52°36' E 001°44'0 0.0
2015-Feb-27 16:32N 52°36' E 001°44'0 0.0
2015-Feb-27 15:32N 52°36' E 001°44'0 0.0
2015-Feb-27 14:32N 52°36' E 001°44'0 0.0
2015-Feb-27 13:32N 52°36' E 001°44'0 0.0
2015-Feb-27 12:32N 52°36' E 001°44'0 0.0
2015-Feb-27 11:32N 52°36' E 001°44'0 0.0
2015-Feb-27 10:32N 52°36' E 001°44'0 0.0
2015-Feb-27 09:32N 52°36' E 001°44'0 0.0
2015-Feb-27 08:32N 52°36' E 001°44'0 0.0
2015-Feb-27 07:32N 52°36' E 001°44'0 0.0
2015-Feb-27 06:32N 52°36' E 001°44'0 0.0
2015-Feb-27 05:32N 52°36' E 001°44'0 0.0
2015-Feb-27 04:32N 52°36' E 001°44'0 0.0
2015-Feb-27 03:32N 52°36' E 001°44'0 0.0
2015-Feb-27 02:29N 52°36' E 001°44'0 0.0
2015-Feb-27 01:32N 52°36' E 001°44'0 0.0
2015-Feb-27 00:32N 52°36' E 001°44'0 0.0
2015-Feb-26 23:32N 52°36' E 001°44'0 0.0
2015-Feb-26 22:31N 52°36' E 001°44'0 0.0
2015-Feb-26 21:31N 52°36' E 001°44'0 0.0
2015-Feb-26 20:31N 52°36' E 001°44'0 0.0
2015-Feb-26 19:31N 52°36' E 001°44'1 0.9
2015-Feb-26 18:31N 52°35' E 001°44'0 0.0
2015-Feb-26 17:31N 52°35' E 001°44'0 0.0
2015-Feb-26 16:31N 52°35' E 001°44'0 0.0
2015-Feb-26 15:31N 52°35' E 001°44'0 0.0
2015-Feb-26 14:34N 52°35' E 001°44'0 0.0
2015-Feb-26 13:33N 52°35' E 001°44'0 0.0
2015-Feb-26 12:33N 52°35' E 001°44'0 0.0
2015-Feb-26 11:33N 52°35' E 001°44'1 0.7
2015-Feb-26 10:32N 52°36' E 001°44'0 0.0
2015-Feb-26 09:32N 52°36' E 001°44'0 0.0
2015-Feb-26 08:32N 52°36' E 001°44'0 0.3
2015-Feb-26 07:33N 52°35' E 001°44'1 1.2
2015-Feb-26 06:33N 52°36' E 001°46'6 6.4
2015-Feb-26 05:33N 52°42' E 001°47'8 7.8
2015-Feb-26 04:33N 52°49' E 001°40'8 7.6
2015-Feb-26 03:33N 52°55' E 001°34'8 7.9
2015-Feb-26 02:33N 53°02' E 001°28'9 8.7
2015-Feb-26 01:33N 53°11' E 001°28'33 5.1
2015-Feb-25 19:12N 53°42' E 001°10'29 1.7
2015-Feb-25 02:33N 53°16' E 001°28'1010.0
2015-Feb-25 01:33N 53°06' E 001°28'9 9.0
2015-Feb-25 00:33N 52°57' E 001°32'8 8.4
2015-Feb-24 23:33N 52°50' E 001°40'8 7.9
2015-Feb-24 22:33N 52°43' E 001°46'9 8.5
2015-Feb-24 21:34N 52°34' E 001°45'1 1.3
2015-Feb-24 20:32N 52°36' E 001°44'0 0.0
2015-Feb-24 19:32N 52°36' E 001°44'0 0.0
2015-Feb-24 18:32N 52°36' E 001°44'0 0.0
2015-Feb-24 17:32N 52°36' E 001°44'0 0.0
2015-Feb-24 16:32N 52°36' E 001°44'0 0.0
2015-Feb-24 15:32N 52°36' E 001°44'0 0.0
2015-Feb-24 14:32N 52°36' E 001°44'0 0.0
2015-Feb-24 13:32N 52°36' E 001°44'0 0.0
2015-Feb-24 12:32N 52°36' E 001°44'0 0.0
2015-Feb-24 11:32N 52°36' E 001°44'0 0.0
2015-Feb-24 10:32N 52°36' E 001°44'0 0.0
2015-Feb-24 09:31N 52°36' E 001°44'0 0.0
2015-Feb-24 08:31N 52°36' E 001°44'0 0.0
2015-Feb-24 07:31N 52°36' E 001°44'0 0.0
2015-Feb-24 06:31N 52°36' E 001°44'0 0.0
2015-Feb-24 05:31N 52°36' E 001°44'0 0.0
2015-Feb-24 04:31N 52°36' E 001°44'0 0.0
2015-Feb-24 03:31N 52°36' E 001°44'0 0.0
2015-Feb-24 02:31N 52°36' E 001°44'0 0.0
2015-Feb-24 01:31N 52°36' E 001°44'0 0.0
2015-Feb-24 00:31N 52°36' E 001°44'0 0.0
2015-Feb-23 23:31N 52°36' E 001°44'0 0.0
2015-Feb-23 22:31N 52°36' E 001°44'0 0.0
2015-Feb-23 21:31N 52°36' E 001°44'2 1.7
2015-Feb-23 20:34N 52°34' E 001°45'2 1.8
2015-Feb-23 19:34N 52°36' E 001°46'6 6.4
2015-Feb-23 18:34N 52°43' E 001°47'10 9.4
2015-Feb-23 17:33N 52°50' E 001°57'10 9.6
2015-Feb-23 16:30N 52°57' E 002°09'6 5.5
2015-Feb-23 15:26N 53°02' E 002°14'2 2.2
2015-Feb-23 14:26N 52°60' E 002°14'4 1.2
2015-Feb-23 11:24N 53°03' E 002°14'1 0.4
2015-Feb-23 08:07N 53°03' E 002°16'1 0.2
2015-Feb-23 02:27N 53°02' E 002°17'2 0.1
2015-Feb-22 00:30N 53°03' E 002°14'0 0.0
2015-Feb-21 23:31N 53°03' E 002°14'0 0.0
2015-Feb-21 22:33N 53°03' E 002°14'1 0.1
2015-Feb-21 09:33N 53°02' E 002°13'1 1.3
2015-Feb-21 08:31N 53°03' E 002°14'3 1.0
2015-Feb-21 05:30N 53°01' E 002°18'2 2.2
2015-Feb-21 04:33N 53°03' E 002°15'6 5.8
2015-Feb-21 03:29N 52°57' E 002°09'7 7.9
2015-Feb-21 02:33N 52°53' E 002°00'9 8.7
2015-Feb-21 01:33N 52°46' E 001°51'1110.9
2015-Feb-21 00:34N 52°35' E 001°46'1 1.1
2015-Feb-20 23:33N 52°36' E 001°44'0 0.0
2015-Feb-20 22:33N 52°36' E 001°44'0 0.0
2015-Feb-20 21:33N 52°36' E 001°44'0 0.0
2015-Feb-20 20:33N 52°36' E 001°44'0 0.0
2015-Feb-20 19:33N 52°36' E 001°44'0 0.0
2015-Feb-20 18:33N 52°36' E 001°44'0 0.0
2015-Feb-20 17:33N 52°35' E 001°44'0 0.0
2015-Feb-20 16:33N 52°36' E 001°44'1 1.3
2015-Feb-20 15:33N 52°35' E 001°45'7 6.8
2015-Feb-20 14:34N 52°41' E 001°46'8 7.9
2015-Feb-20 13:33N 52°49' E 001°41'9 9.2
2015-Feb-20 12:33N 52°57' E 001°33'1010.1
2015-Feb-20 11:33N 53°06' E 001°28'38 1.1
2015-Feb-19 02:12N 53°42' E 001°07'2 1.3
2015-Feb-19 00:29N 53°40' E 001°04'3 2.7
2015-Feb-18 23:31N 53°42' E 001°07'1 1.1
2015-Feb-18 22:31N 53°41' E 001°07'2 1.6
2015-Feb-18 21:30N 53°42' E 001°10'  
Track history (hours):
 
Tides and Currents Weather Stations Pressure Air Temp Water Temp Dewpoint Dewpoint Depression Visibility Wind Speed Wind Dir Waves Ship Positions

Malaviya Twenty

Last reported at 2015-Feb-28 16:33 UTC. Time now 2015-Feb-28 17:27 UTC.
Position N 52°36' E 001°44'.

Length 72 m; draft 4.3 m.

Type: Ship. MMSI: 419504000.

Date/timePositionNaut miles runAvg speedWind from/ knotsBaromVisibWave heightAir tempDewpointWater temp
2015-Feb-28 16:33N 52°36' E 001°44'0 0.0
2015-Feb-28 15:33N 52°36' E 001°44'0 0.0
2015-Feb-28 14:33N 52°36' E 001°44'0 0.0
2015-Feb-28 13:33N 52°36' E 001°44'0 0.0
2015-Feb-28 12:33N 52°36' E 001°44'0 0.0
2015-Feb-28 11:33N 52°36' E 001°44'0 0.0
2015-Feb-28 10:33N 52°36' E 001°44'0 0.0
2015-Feb-28 09:32N 52°36' E 001°44'0 0.0
2015-Feb-28 08:32N 52°36' E 001°44'0 0.0
2015-Feb-28 07:32N 52°36' E 001°44'0 0.0
2015-Feb-28 06:32N 52°36' E 001°44'0 0.0
2015-Feb-28 05:32N 52°36' E 001°44'0 0.0
2015-Feb-28 04:32N 52°36' E 001°44'0 0.0
2015-Feb-28 03:32N 52°36' E 001°44'0 0.0
2015-Feb-28 02:32N 52°36' E 001°44'0 0.0
2015-Feb-28 01:32N 52°36' E 001°44'0 0.0
2015-Feb-28 00:32N 52°36' E 001°44'0 0.0
2015-Feb-27 23:32N 52°36' E 001°44'0 0.0
2015-Feb-27 22:32N 52°36' E 001°44'0 0.0
2015-Feb-27 21:32N 52°36' E 001°44'0 0.0
2015-Feb-27 20:32N 52°36' E 001°44'0 0.0
2015-Feb-27 19:32N 52°36' E 001°44'0 0.0
2015-Feb-27 18:32N 52°36' E 001°44'0 0.0
2015-Feb-27 17:32N 52°36' E 001°44'0 0.0
2015-Feb-27 16:32N 52°36' E 001°44'0 0.0
2015-Feb-27 15:32N 52°36' E 001°44'0 0.0
2015-Feb-27 14:32N 52°36' E 001°44'0 0.0
2015-Feb-27 13:32N 52°36' E 001°44'0 0.0
2015-Feb-27 12:32N 52°36' E 001°44'0 0.0
2015-Feb-27 11:32N 52°36' E 001°44'0 0.0
2015-Feb-27 10:32N 52°36' E 001°44'0 0.0
2015-Feb-27 09:32N 52°36' E 001°44'0 0.0
2015-Feb-27 08:32N 52°36' E 001°44'0 0.0
2015-Feb-27 07:32N 52°36' E 001°44'0 0.0
2015-Feb-27 06:32N 52°36' E 001°44'0 0.0
2015-Feb-27 05:32N 52°36' E 001°44'0 0.0
2015-Feb-27 04:32N 52°36' E 001°44'0 0.0
2015-Feb-27 03:32N 52°36' E 001°44'0 0.0
2015-Feb-27 02:29N 52°36' E 001°44'0 0.0
2015-Feb-27 01:32N 52°36' E 001°44'0 0.0
2015-Feb-27 00:32N 52°36' E 001°44'0 0.0
2015-Feb-26 23:32N 52°36' E 001°44'0 0.0
2015-Feb-26 22:31N 52°36' E 001°44'0 0.0
2015-Feb-26 21:31N 52°36' E 001°44'0 0.0
2015-Feb-26 20:31N 52°36' E 001°44'0 0.0
2015-Feb-26 19:31N 52°36' E 001°44'1 0.9
2015-Feb-26 18:31N 52°35' E 001°44'0 0.0
2015-Feb-26 17:31N 52°35' E 001°44'0 0.0
2015-Feb-26 16:31N 52°35' E 001°44'0 0.0
2015-Feb-26 15:31N 52°35' E 001°44'0 0.0
2015-Feb-26 14:34N 52°35' E 001°44'0 0.0
2015-Feb-26 13:33N 52°35' E 001°44'0 0.0
2015-Feb-26 12:33N 52°35' E 001°44'0 0.0
2015-Feb-26 11:33N 52°35' E 001°44'1 0.7
2015-Feb-26 10:32N 52°36' E 001°44'0 0.0
2015-Feb-26 09:32N 52°36' E 001°44'0 0.0
2015-Feb-26 08:32N 52°36' E 001°44'0 0.3
2015-Feb-26 07:33N 52°35' E 001°44'1 1.2
2015-Feb-26 06:33N 52°36' E 001°46'6 6.4
2015-Feb-26 05:33N 52°42' E 001°47'8 7.8
2015-Feb-26 04:33N 52°49' E 001°40'8 7.6
2015-Feb-26 03:33N 52°55' E 001°34'8 7.9
2015-Feb-26 02:33N 53°02' E 001°28'9 8.7
2015-Feb-26 01:33N 53°11' E 001°28'33 5.1
2015-Feb-25 19:12N 53°42' E 001°10'29 1.7
2015-Feb-25 02:33N 53°16' E 001°28'1010.0
2015-Feb-25 01:33N 53°06' E 001°28'9 9.0
2015-Feb-25 00:33N 52°57' E 001°32'8 8.4
2015-Feb-24 23:33N 52°50' E 001°40'8 7.9
2015-Feb-24 22:33N 52°43' E 001°46'9 8.5
2015-Feb-24 21:34N 52°34' E 001°45'1 1.3
2015-Feb-24 20:32N 52°36' E 001°44'0 0.0
2015-Feb-24 19:32N 52°36' E 001°44'0 0.0
2015-Feb-24 18:32N 52°36' E 001°44'0 0.0
2015-Feb-24 17:32N 52°36' E 001°44'0 0.0
2015-Feb-24 16:32N 52°36' E 001°44'0 0.0
2015-Feb-24 15:32N 52°36' E 001°44'0 0.0
2015-Feb-24 14:32N 52°36' E 001°44'0 0.0
2015-Feb-24 13:32N 52°36' E 001°44'0 0.0
2015-Feb-24 12:32N 52°36' E 001°44'0 0.0
2015-Feb-24 11:32N 52°36' E 001°44'0 0.0
2015-Feb-24 10:32N 52°36' E 001°44'0 0.0
2015-Feb-24 09:31N 52°36' E 001°44'0 0.0
2015-Feb-24 08:31N 52°36' E 001°44'0 0.0
2015-Feb-24 07:31N 52°36' E 001°44'0 0.0
2015-Feb-24 06:31N 52°36' E 001°44'0 0.0
2015-Feb-24 05:31N 52°36' E 001°44'0 0.0
2015-Feb-24 04:31N 52°36' E 001°44'0 0.0
2015-Feb-24 03:31N 52°36' E 001°44'0 0.0
2015-Feb-24 02:31N 52°36' E 001°44'0 0.0
2015-Feb-24 01:31N 52°36' E 001°44'0 0.0
2015-Feb-24 00:31N 52°36' E 001°44'0 0.0
2015-Feb-23 23:31N 52°36' E 001°44'0 0.0
2015-Feb-23 22:31N 52°36' E 001°44'0 0.0
2015-Feb-23 21:31N 52°36' E 001°44'2 1.7
2015-Feb-23 20:34N 52°34' E 001°45'2 1.8
2015-Feb-23 19:34N 52°36' E 001°46'6 6.4
2015-Feb-23 18:34N 52°43' E 001°47'10 9.4
2015-Feb-23 17:33N 52°50' E 001°57'10 9.6
2015-Feb-23 16:30N 52°57' E 002°09'6 5.5
2015-Feb-23 15:26N 53°02' E 002°14'2 2.2
2015-Feb-23 14:26N 52°60' E 002°14'4 1.2
2015-Feb-23 11:24N 53°03' E 002°14'1 0.4
2015-Feb-23 08:07N 53°03' E 002°16'1 0.2
2015-Feb-23 02:27N 53°02' E 002°17'2 0.1
2015-Feb-22 00:30N 53°03' E 002°14'0 0.0
2015-Feb-21 23:31N 53°03' E 002°14'0 0.0
2015-Feb-21 22:33N 53°03' E 002°14'1 0.1
2015-Feb-21 09:33N 53°02' E 002°13'1 1.3
2015-Feb-21 08:31N 53°03' E 002°14'3 1.0
2015-Feb-21 05:30N 53°01' E 002°18'2 2.2
2015-Feb-21 04:33N 53°03' E 002°15'6 5.8
2015-Feb-21 03:29N 52°57' E 002°09'7 7.9
2015-Feb-21 02:33N 52°53' E 002°00'9 8.7
2015-Feb-21 01:33N 52°46' E 001°51'1110.9
2015-Feb-21 00:34N 52°35' E 001°46'1 1.1
2015-Feb-20 23:33N 52°36' E 001°44'0 0.0
2015-Feb-20 22:33N 52°36' E 001°44'0 0.0
2015-Feb-20 21:33N 52°36' E 001°44'0 0.0
2015-Feb-20 20:33N 52°36' E 001°44'0 0.0
2015-Feb-20 19:33N 52°36' E 001°44'0 0.0
2015-Feb-20 18:33N 52°36' E 001°44'0 0.0
2015-Feb-20 17:33N 52°35' E 001°44'0 0.0
2015-Feb-20 16:33N 52°36' E 001°44'1 1.3
2015-Feb-20 15:33N 52°35' E 001°45'7 6.8
2015-Feb-20 14:34N 52°41' E 001°46'8 7.9
2015-Feb-20 13:33N 52°49' E 001°41'9 9.2
2015-Feb-20 12:33N 52°57' E 001°33'1010.1
2015-Feb-20 11:33N 53°06' E 001°28'38 1.1
2015-Feb-19 02:12N 53°42' E 001°07'2 1.3
2015-Feb-19 00:29N 53°40' E 001°04'3 2.7
2015-Feb-18 23:31N 53°42' E 001°07'1 1.1
2015-Feb-18 22:31N 53°41' E 001°07'2 1.6
2015-Feb-18 21:30N 53°42' E 001°10'  

Dump ship's entire track history